Flight Track Log - Related Links

Times and Time Zones

All times are in EDT time to prevent confusion due to time zone crossing. See the AWI3866 flight status page for this flight to view local times or setup timezone preferences in your user account.


Time Position Orientation Groundspeed Altitude Reporting Facility
EDT Latitude Longitude Course Direction KTS MPH feet Rate Location/Type
Sun 07:18:52 PM 39.8667 -75.2667 37° Northeast 151 174 600  Level Philadelphia TRACON
Sun 07:19:28 PM 39.8333 -75.3000 218° Southwest 163 188 1,900 2,467 Climbing Philadelphia TRACON
Sun 07:20:22 PM 39.8000 -75.3333 218° Southwest 200 230 4,300 2,579 Climbing Philadelphia TRACON
Sun 07:21:22 PM 39.7500 -75.2833 142° Southeast 267 307 6,800 2,363 Climbing Philadelphia TRACON
Sun 07:23:02 PM 39.7564 -75.1131 87° East 321 369 10,600 1,838 Climbing New York Center
Sun 07:24:00 PM 39.8269 -74.6565 37° Northeast  Level FlightAware Approximate
Sun 07:24:02 PM 39.7664 -75.0056 83° East 321 369 11,700  Level New York Center
Sun 07:25:02 PM 39.7803 -74.8550 83° East 350 403 12,100 1,000 Climbing New York Center
Sun 07:26:02 PM 39.7992 -74.7239 79° East 390 449 13,700 1,950 Climbing New York Center
Sun 07:27:02 PM 39.8903 -74.6233 40° Northeast 364 419 16,000 1,850 Climbing New York Center
Sun 07:28:02 PM 39.9764 -74.5389 37° Northeast 364 419 17,400 1,350 Climbing New York Center
Sun 07:29:02 PM 40.0644 -74.4514 37° Northeast 382 440 18,700 800 Climbing New York Center
Sun 07:30:02 PM 40.1528 -74.3636 37° Northeast 399 459 19,000 150 Climbing New York Center
Sun 07:31:02 PM 40.2264 -74.2669 45° Northeast 404 465 19,000  Level New York Center
Sun 07:32:02 PM 40.2967 -74.1508 52° Northeast 415 478 19,000  Level New York Center
Sun 07:33:02 PM 40.3775 -74.0158 52° Northeast 422 486 19,000  Level New York Center
Sun 07:34:02 PM 40.4497 -73.8883 53° Northeast 427 491 19,000  Level New York Center
Sun 07:35:02 PM 40.5217 -73.7633 53° Northeast 433 498 19,000  Level New York Center
Sun 07:36:33 PM 40.6286 -73.5892 51° Northeast 432 497 19,000  Level Boston Center
Sun 07:37:35 PM 40.7028 -73.4622 52° Northeast 433 498 19,000  Level Boston Center
Sun 07:38:36 PM 40.7756 -73.3342 53° Northeast 437 503 19,000  Level Boston Center
Sun 07:39:38 PM 40.8631 -73.2242 44° Northeast 434 499 19,000  Level Boston Center
Sun 07:40:39 PM 40.9717 -73.0961 42° Northeast 434 499 19,000 -787 Level Boston Center
Sun 07:41:40 PM 41.0617 -72.9922 41° Northeast 428 493 17,400 -1,805 Descending Boston Center
Sun 07:42:42 PM 41.1453 -72.8922 42° Northeast 406 467 15,300 -2,115 Descending Boston Center
Sun 07:43:42 PM 41.2278 -72.7933 42° Northeast 372 428 13,100 -2,098 Descending Boston Center
Sun 07:44:45 PM 41.3072 -72.7011 41° Northeast 372 428 11,000 -1,096 Descending Boston Center
Sun 07:45:37 PM 41.3886 -72.6817 10° North 339 390 11,000 -372 Level Boston Center
Sun 07:46:38 PM 41.4778 -72.6675 North 308 354 10,300 -1,082 Descending Boston Center
Sun 07:47:39 PM 41.5578 -72.6558 North 296 341 8,800 -1,475 Descending Boston Center
Sun 07:48:40 PM 41.6428 -72.6403 North 298 343 7,300 -1,488 Descending Boston Center
Sun 07:49:40 PM 41.7256 -72.6264 North 305 351 5,800 -1,140 Descending Boston Center
Sun 07:50:41 PM 41.8119 -72.6142 North 307 353 5,000 -393 Descending Boston Center
Sun 07:51:42 PM 41.8781 -72.5972 11° North 233 268 5,000 -330 Level Boston Center
Sun 07:52:30 PM 41.9164 -72.5561 39° Northeast 194 223 4,400 -1,456 Descending Boston Center
Sun 07:53:25 PM 41.9517 -72.5744 339° North 157 181 2,500 -1,500 Descending Boston Center
Sun 07:54:26 PM 41.9825 -72.6144 316° Northwest 148 170 1,500 -902 Descending Boston Center
Sun 07:55:38 PM 41.9581 -72.6606 235° Southwest 128 147 500 -833 Descending Boston Center

Login

Don't have an account? Register now (free) for customized features, flight alerts, and more!